Airfield :
LOGIN :

Register | Disclaimer

   EN    FR    IT 

 










Legend :    VFR   Marginal VFR   IFR   Intensive IFR   Very Intensive IFR
Visi :
Ceiling :
>= 8 km
>= 3000ft
5 to 8 km
1000 to 3000 ft
1500m to 5 km
500 to 1000 ft
800 to 1500m
200 to 500 ft
< 800m
< 200 ft
Symbols :   Thunderstorms  Fog  Heavy snow  Heavy precipitations  Wind > 20 kt
SIGMETs :     Misc.  Thunderstorms  Icing  Turbulence  Mountain Waves  Volcanic Ashes







- Airport Elevation : 370 ft


EBBE - Beauvechain AB

CURRENT METAR :
  • 180655Z VRB01KT 9000 SCT250 12/09 Q1013 BLU BLU

EXPIRED METARs :
  • 180648Z VRB01KT 9000 SCT250 11/09 Q1013 BLU BLU
  • 180625Z VRB02KT 5000 BR SCT250 11/09 Q1013 WHT WHT BECMG BLU
  • 180622Z VRB02KT 5000 BR SCT250 11/09 Q1013 WHT WHT BECMG BLU
  • 180619Z VRB02KT 4000 BCFG FEW250 11/10 Q1013 GRN GRN BECMG WHT
  • 180555Z 11004KT 3000 BCFG FEW250 11/10 Q1013 YLO GRN BECMG WHT
  • 180550Z 11004KT 3000 BCFG FEW250 11/10 Q1013 YLO GRN BECMG WHT
  • 180525Z VRB01KT 2000 BCFG FEW250 11/10 Q1013 YLO YLO TEMPO RED
  • 180455Z VRB02KT 2000 BCFG FEW250 10/10 Q1014 YLO YLO TEMPO RED
  • 180433Z VRB02KT 4000 MIFG FEW250 10/09 Q1014 GRN YLO TEMPO RED
  • 180425Z VRB02KT 4000 MIFG FEW250 10/09 Q1014 GRN YLO TEMPO RED

TAF TAF EBBE
Valid from the 18 at 07:00 until the 18 at 16:00 UTC


180541Z 1807/1816 VRB02KT 6000 FEW300
TEMPO 1807/1808 2500 BCFG
BECMG 1808/1810 21008KT 9999 FEW018
No reported NOTAMs for that airfield.



MET'MAP, your aeronautical weather chart ! - Copyright ORBIFLY December 2007 - Disclaimer

ORBIFLY MET'MAP TEAM :

Programming & Development : Alexandra Zaïnal
Concept & Development : Baudouin d'Aumeries
Co-Development & Prog : Marc-Olivier Méhu
Technical & hardware support : Manuel Goepfert

Contact : metmap@orbifly.com




SOURCES & CREDITS :

   NOAA